createdAt,value
2017-12-04T00:01:19.505Z,5.90
2017-12-04T00:03:45.504Z,5.90
2017-12-04T00:06:11.796Z,5.80
2017-12-04T00:08:37.822Z,5.90
2017-12-04T00:11:03.819Z,5.80
2017-12-04T00:13:30.896Z,5.90
2017-12-04T00:15:57.624Z,6.00
2017-12-04T00:18:23.641Z,6.00
2017-12-04T00:20:49.668Z,6.00
2017-12-04T00:23:16.408Z,6.00
2017-12-04T00:25:42.381Z,6.00
2017-12-04T00:28:08.344Z,6.00
2017-12-04T00:30:34.324Z,6.00
2017-12-04T00:33:00.285Z,6.00
2017-12-04T00:35:26.302Z,5.90
2017-12-04T00:37:52.252Z,6.00
2017-12-04T00:40:18.232Z,5.90
2017-12-04T00:42:44.320Z,6.00
2017-12-04T00:45:10.292Z,6.00
2017-12-04T00:47:36.272Z,6.00
2017-12-04T00:50:03.597Z,6.00
2017-12-04T00:52:30.329Z,6.00
2017-12-04T00:54:57.045Z,6.00
2017-12-04T00:57:23.037Z,6.10
2017-12-04T00:59:49.015Z,6.10
2017-12-04T01:02:22.007Z,6.00
2017-12-04T01:04:48.325Z,6.10
2017-12-04T01:07:15.057Z,6.00
2017-12-04T01:09:41.798Z,6.00
2017-12-04T01:12:08.554Z,6.00
2017-12-04T01:14:35.266Z,6.00
2017-12-04T01:17:01.230Z,6.00
2017-12-04T01:19:27.242Z,6.10
2017-12-04T01:21:54.005Z,6.10
2017-12-04T01:24:19.977Z,6.00
2017-12-04T01:26:45.953Z,6.10
2017-12-04T01:29:11.940Z,6.00
2017-12-04T01:31:38.653Z,6.10
2017-12-04T01:34:04.898Z,6.10
2017-12-04T01:36:38.560Z,6.10
2017-12-04T01:39:04.577Z,6.00
2017-12-04T01:41:30.574Z,6.10
2017-12-04T01:43:56.597Z,6.10
2017-12-04T01:46:22.790Z,6.10
2017-12-04T01:48:49.543Z,6.10
2017-12-04T01:51:16.265Z,6.10
2017-12-04T01:53:43.945Z,6.00
2017-12-04T01:56:10.668Z,6.10
2017-12-04T01:58:37.421Z,6.20
2017-12-04T02:01:04.137Z,6.10
2017-12-04T02:03:30.150Z,6.10
2017-12-04T02:05:56.409Z,6.10
2017-12-04T02:08:23.142Z,6.00
2017-12-04T02:10:49.873Z,6.00
2017-12-04T02:13:16.628Z,6.00
2017-12-04T02:15:43.354Z,6.00
2017-12-04T02:18:10.830Z,5.90
2017-12-04T02:20:36.829Z,5.90
2017-12-04T02:23:02.870Z,5.90
2017-12-04T02:25:29.609Z,5.80
2017-12-04T02:27:56.532Z,5.80
2017-12-04T02:30:24.420Z,5.80
2017-12-04T02:32:51.170Z,5.80
2017-12-04T02:35:17.207Z,5.70
2017-12-04T02:37:43.217Z,5.80
2017-12-04T02:40:09.192Z,5.80
2017-12-04T02:42:35.241Z,5.80
2017-12-04T02:45:01.983Z,5.80
2017-12-04T02:47:28.722Z,5.80
2017-12-04T02:49:55.668Z,5.80
2017-12-04T02:52:22.415Z,5.80
2017-12-04T02:54:48.421Z,5.80
2017-12-04T02:57:15.149Z,5.90
2017-12-04T02:59:41.125Z,5.90
2017-12-04T03:02:07.083Z,5.80
2017-12-04T03:04:33.858Z,5.90
2017-12-04T03:06:59.824Z,5.90
2017-12-04T03:09:25.822Z,6.00
2017-12-04T03:11:52.024Z,6.00
2017-12-04T03:14:18.736Z,6.00
2017-12-04T03:16:44.733Z,6.00
2017-12-04T03:19:10.753Z,6.10
2017-12-04T03:21:36.733Z,6.10
2017-12-04T03:24:02.697Z,6.10
2017-12-04T03:26:29.449Z,6.00
2017-12-04T03:28:55.505Z,6.00
2017-12-04T03:31:22.231Z,6.00
2017-12-04T03:33:48.992Z,6.10
2017-12-04T03:36:15.720Z,6.10
2017-12-04T03:38:42.489Z,6.20
2017-12-04T03:41:08.484Z,6.20
2017-12-04T03:43:35.218Z,6.20
2017-12-04T03:46:02.028Z,6.20
2017-12-04T03:48:28.044Z,6.20
2017-12-04T03:50:54.028Z,6.10
2017-12-04T03:53:20.029Z,6.00
2017-12-04T03:55:46.738Z,5.90
2017-12-04T03:58:12.740Z,5.90
2017-12-04T04:00:38.712Z,6.00
2017-12-04T04:04:02.518Z,5.90
2017-12-04T04:06:28.522Z,5.80
2017-12-04T04:08:54.517Z,5.90
2017-12-04T04:11:20.474Z,5.90
2017-12-04T04:13:46.562Z,5.90
2017-12-04T04:16:12.546Z,5.90
2017-12-04T04:18:38.527Z,5.90
2017-12-04T04:21:05.257Z,6.00
2017-12-04T04:23:31.257Z,6.00
2017-12-04T04:25:57.369Z,6.00
2017-12-04T04:28:23.575Z,6.00
2017-12-04T04:30:49.563Z,6.00
2017-12-04T04:33:16.288Z,6.00
2017-12-04T04:35:43.028Z,6.00
2017-12-04T04:38:09.740Z,6.00
2017-12-04T04:40:35.766Z,6.00
2017-12-04T04:43:01.728Z,6.10
2017-12-04T04:45:27.739Z,6.00
2017-12-04T04:47:54.447Z,6.10
2017-12-04T04:50:20.465Z,6.10
2017-12-04T04:52:46.459Z,6.10
2017-12-04T04:55:12.441Z,6.10
2017-12-04T04:57:39.213Z,6.10
2017-12-04T05:00:05.198Z,6.10
2017-12-04T05:02:31.953Z,6.10
2017-12-04T05:04:58.053Z,6.10
2017-12-04T05:07:24.022Z,6.00
2017-12-04T05:09:49.997Z,6.20
2017-12-04T05:12:16.784Z,6.20
2017-12-04T05:14:42.813Z,6.20
2017-12-04T05:17:08.781Z,6.10
2017-12-04T05:19:34.793Z,6.10
2017-12-04T05:22:01.550Z,6.20
2017-12-04T05:24:28.277Z,6.20
2017-12-04T05:26:54.288Z,6.10
2017-12-04T05:29:20.257Z,6.20
2017-12-04T05:31:46.261Z,6.20
2017-12-04T05:34:13.311Z,6.20
2017-12-04T05:36:40.066Z,6.10
2017-12-04T05:39:06.061Z,6.10
2017-12-04T05:41:32.809Z,6.10
2017-12-04T05:43:59.525Z,6.10
2017-12-04T05:46:25.596Z,6.10
2017-12-04T05:48:51.598Z,6.10
2017-12-04T05:51:18.350Z,6.00
2017-12-04T05:53:44.350Z,6.00
2017-12-04T05:56:11.074Z,6.00
2017-12-04T05:58:37.060Z,6.00
2017-12-04T06:01:03.078Z,5.90
2017-12-04T06:03:29.102Z,6.00
2017-12-04T06:05:55.085Z,6.00
2017-12-04T06:08:22.121Z,6.00
2017-12-04T06:10:48.824Z,6.10
2017-12-04T06:13:14.809Z,6.10
2017-12-04T06:15:40.808Z,6.20
2017-12-04T06:18:07.521Z,6.30
2017-12-04T06:20:34.265Z,6.10
2017-12-04T06:23:00.288Z,6.10
2017-12-04T06:25:26.277Z,6.10
2017-12-04T06:27:52.240Z,6.00
2017-12-04T06:30:19.145Z,6.00
2017-12-04T06:32:45.132Z,6.00
2017-12-04T06:35:11.126Z,6.00
2017-12-04T06:37:38.181Z,6.10
2017-12-04T06:40:04.902Z,6.10
2017-12-04T06:42:30.881Z,6.10
2017-12-04T06:44:57.165Z,6.00
2017-12-04T06:47:24.645Z,6.00
2017-12-04T06:49:50.629Z,6.00
2017-12-04T06:52:16.649Z,6.00
2017-12-04T06:54:42.610Z,6.00
2017-12-04T06:57:08.585Z,6.00
2017-12-04T06:59:34.598Z,5.90
2017-12-04T07:02:00.566Z,5.90
2017-12-04T07:04:27.296Z,5.80
2017-12-04T07:06:54.056Z,5.80
2017-12-04T07:09:27.035Z,5.80
2017-12-04T07:11:53.044Z,5.80
2017-12-04T07:14:19.852Z,5.70
2017-12-04T07:16:45.819Z,5.70
2017-12-04T07:19:11.797Z,5.80
2017-12-04T07:21:37.806Z,5.90
2017-12-04T07:24:03.806Z,5.90
2017-12-04T07:26:29.788Z,5.90
2017-12-04T07:28:56.524Z,5.80
2017-12-04T07:31:23.237Z,5.90
2017-12-04T07:33:49.258Z,5.90
2017-12-04T07:36:15.238Z,5.90
2017-12-04T07:38:41.197Z,6.00
2017-12-04T07:41:07.209Z,6.00
2017-12-04T07:43:33.205Z,6.00
2017-12-04T07:45:59.189Z,6.00
2017-12-04T07:48:25.152Z,6.00
2017-12-04T07:50:52.149Z,6.00
2017-12-04T07:53:18.173Z,5.90
2017-12-04T07:55:44.145Z,5.90
2017-12-04T07:58:10.212Z,5.80
2017-12-04T08:00:36.202Z,5.80
2017-12-04T08:03:09.084Z,5.90
2017-12-04T08:05:35.067Z,5.90
2017-12-04T08:08:01.049Z,5.90
2017-12-04T08:10:27.033Z,5.90
2017-12-04T08:12:53.013Z,6.00
2017-12-04T08:15:18.988Z,6.00
2017-12-04T08:17:44.981Z,6.00
2017-12-04T08:20:11.078Z,6.00
2017-12-04T08:22:37.072Z,6.00
2017-12-04T08:25:03.087Z,6.10
2017-12-04T08:27:29.093Z,6.10
2017-12-04T08:29:55.109Z,6.20
2017-12-04T08:32:21.085Z,6.20
2017-12-04T08:34:47.101Z,6.30
2017-12-04T08:37:13.360Z,6.30
2017-12-04T08:39:40.098Z,6.30
2017-12-04T08:42:06.829Z,6.30
2017-12-04T08:44:33.741Z,6.30
2017-12-04T08:46:59.762Z,6.30
2017-12-04T08:49:25.748Z,6.30
2017-12-04T08:51:51.754Z,6.30
2017-12-04T08:54:17.709Z,6.50
2017-12-04T08:56:43.672Z,6.50
2017-12-04T08:59:09.689Z,6.50
2017-12-04T09:01:35.710Z,6.40
2017-12-04T09:04:01.734Z,6.40
2017-12-04T09:06:28.525Z,6.30
2017-12-04T09:08:54.499Z,6.30
2017-12-04T09:11:20.497Z,6.30
2017-12-04T09:13:46.486Z,6.30
2017-12-04T09:16:12.463Z,6.30
2017-12-04T09:18:39.243Z,6.30
2017-12-04T09:21:05.252Z,6.30
2017-12-04T09:23:31.252Z,6.30
2017-12-04T09:25:57.988Z,6.40
2017-12-04T09:28:23.962Z,6.40
2017-12-04T09:30:49.952Z,6.50
2017-12-04T09:33:16.699Z,7.10
2017-12-04T09:35:42.701Z,7.10
2017-12-04T09:38:09.439Z,9.10
2017-12-04T09:40:36.192Z,9.80
2017-12-04T09:43:09.873Z,9.80
2017-12-04T09:45:35.869Z,9.80
2017-12-04T09:48:01.865Z,9.40
2017-12-04T09:50:27.855Z,9.00
2017-12-04T09:52:54.785Z,9.00
2017-12-04T09:55:21.561Z,8.70
2017-12-04T09:57:48.234Z,8.10
2017-12-04T10:00:14.236Z,8.00
2017-12-04T10:02:40.185Z,7.90
2017-12-04T10:05:06.168Z,7.60
2017-12-04T10:07:32.376Z,7.60
2017-12-04T10:09:58.737Z,7.70
2017-12-04T10:12:24.738Z,7.60
2017-12-04T10:14:50.800Z,7.50
2017-12-04T10:17:17.780Z,7.30
2017-12-04T10:19:44.528Z,7.50
2017-12-04T10:22:11.248Z,7.60
2017-12-04T10:24:37.258Z,7.60
2017-12-04T10:27:03.227Z,7.70
2017-12-04T10:29:29.231Z,7.60
2017-12-04T10:31:56.696Z,7.50
2017-12-04T10:34:22.697Z,7.50
2017-12-04T10:36:49.512Z,7.50
2017-12-04T10:39:15.501Z,7.50
2017-12-04T10:41:41.612Z,7.40
2017-12-04T10:44:07.622Z,7.40
2017-12-04T10:46:34.357Z,7.50
2017-12-04T10:49:01.080Z,7.60
2017-12-04T10:51:27.428Z,7.60
2017-12-04T10:53:54.163Z,7.40
2017-12-04T10:56:20.898Z,7.40
2017-12-04T10:58:47.648Z,7.40
2017-12-04T11:01:14.394Z,7.40
2017-12-04T11:03:40.390Z,7.40
2017-12-04T11:06:06.361Z,7.40
2017-12-04T11:08:32.360Z,7.50
2017-12-04T11:10:58.356Z,7.50
2017-12-04T11:13:25.116Z,7.40
2017-12-04T11:15:51.824Z,7.40
2017-12-04T11:18:17.819Z,7.40
2017-12-04T11:20:43.816Z,7.30
2017-12-04T11:23:09.800Z,7.40
2017-12-04T11:25:35.777Z,7.40
2017-12-04T11:28:01.792Z,7.40
2017-12-04T11:30:27.785Z,7.40
2017-12-04T11:32:54.490Z,7.50
2017-12-04T11:35:20.480Z,7.50
2017-12-04T11:37:46.453Z,7.60
2017-12-04T11:40:13.169Z,7.70
2017-12-04T11:42:39.201Z,7.60
2017-12-04T11:45:05.187Z,7.70
2017-12-04T11:47:31.181Z,7.50
2017-12-04T11:49:57.473Z,7.50
2017-12-04T11:52:23.445Z,7.30
2017-12-04T11:54:49.453Z,7.20
2017-12-04T11:57:15.456Z,7.20
2017-12-04T11:59:42.196Z,7.30
2017-12-04T12:02:08.161Z,7.30
2017-12-04T12:04:34.169Z,7.40
2017-12-04T12:07:00.153Z,7.60
2017-12-04T12:09:26.904Z,7.70
2017-12-04T12:11:53.869Z,7.70
2017-12-04T12:14:19.874Z,7.70
2017-12-04T12:16:45.908Z,7.70
2017-12-04T12:19:12.153Z,7.80
2017-12-04T12:21:38.235Z,7.60
2017-12-04T12:24:04.946Z,7.60
2017-12-04T12:26:31.165Z,7.60
2017-12-04T12:28:57.168Z,7.50
2017-12-04T12:31:23.157Z,7.40
2017-12-04T12:33:49.868Z,7.60
2017-12-04T12:36:15.862Z,7.60
2017-12-04T12:38:41.938Z,7.60
2017-12-04T12:41:08.668Z,7.50
2017-12-04T12:43:35.396Z,7.60
2017-12-04T12:46:01.403Z,7.60
2017-12-04T12:48:27.413Z,7.50
2017-12-04T12:50:53.401Z,7.40
2017-12-04T12:53:21.009Z,7.20
2017-12-04T12:55:47.004Z,7.20
2017-12-04T12:58:13.001Z,7.30
2017-12-04T13:00:38.996Z,7.40
2017-12-04T13:03:05.713Z,7.30
2017-12-04T13:05:31.715Z,7.30
2017-12-04T13:07:57.700Z,7.20
2017-12-04T13:10:23.702Z,7.20
2017-12-04T13:12:50.450Z,7.10
2017-12-04T13:15:17.208Z,7.20
2017-12-04T13:17:43.197Z,7.20
2017-12-04T13:20:09.519Z,7.10
2017-12-04T13:22:35.647Z,7.10
2017-12-04T13:25:01.629Z,7.00
2017-12-04T13:27:27.656Z,7.00
2017-12-04T13:29:53.617Z,7.00
2017-12-04T13:32:31.921Z,7.00
2017-12-04T13:35:10.408Z,7.00
2017-12-04T13:37:36.400Z,7.00
2017-12-04T13:40:02.390Z,7.00
2017-12-04T13:42:29.128Z,6.90
2017-12-04T13:44:55.133Z,6.90
2017-12-04T13:47:21.112Z,6.90
2017-12-04T13:49:47.106Z,6.80
2017-12-04T13:52:14.136Z,6.80
2017-12-04T13:54:40.130Z,6.80
2017-12-04T13:57:06.119Z,6.90
2017-12-04T13:59:32.140Z,6.80
2017-12-04T14:01:58.125Z,6.80
2017-12-04T14:04:24.114Z,6.70
2017-12-04T14:06:50.187Z,6.80
2017-12-04T14:09:16.917Z,6.60
2017-12-04T14:11:43.632Z,6.60
2017-12-04T14:14:09.593Z,6.50
2017-12-04T14:16:35.593Z,6.50
2017-12-04T14:19:02.543Z,6.50
2017-12-04T14:21:29.285Z,6.50
2017-12-04T14:23:56.010Z,6.50
2017-12-04T14:26:21.992Z,6.50
2017-12-04T14:28:47.996Z,6.50
2017-12-04T14:31:13.956Z,6.40
2017-12-04T14:33:40.360Z,6.50
2017-12-04T14:36:06.325Z,6.50
2017-12-04T14:38:32.301Z,6.40
2017-12-04T14:40:58.576Z,6.40
2017-12-04T14:43:24.553Z,6.40
2017-12-04T14:45:50.547Z,6.50
2017-12-04T14:48:16.533Z,6.50
2017-12-04T14:50:42.504Z,6.50
2017-12-04T14:53:08.473Z,6.50
2017-12-04T14:55:34.497Z,6.50
2017-12-04T14:58:00.474Z,6.50
2017-12-04T15:00:26.463Z,6.60
2017-12-04T15:02:53.221Z,6.60
2017-12-04T15:05:19.190Z,6.60
2017-12-04T15:07:45.209Z,6.70
2017-12-04T15:10:11.189Z,6.80
2017-12-04T15:12:37.936Z,6.80
2017-12-04T15:15:03.928Z,6.70
2017-12-04T15:17:30.671Z,6.80
2017-12-04T15:19:57.531Z,6.70
2017-12-04T15:22:23.542Z,6.70
2017-12-04T15:24:50.269Z,6.70
2017-12-04T15:27:17.248Z,6.70
2017-12-04T15:29:43.221Z,6.70
2017-12-04T15:32:09.218Z,6.90
2017-12-04T15:34:35.237Z,7.10
2017-12-04T15:37:01.217Z,7.00
2017-12-04T15:39:27.186Z,6.90
2017-12-04T15:41:54.371Z,6.70
2017-12-04T15:44:21.140Z,6.70
2017-12-04T15:46:47.118Z,6.70
2017-12-04T15:49:13.145Z,6.80
2017-12-04T15:51:39.884Z,6.70
2017-12-04T15:54:05.888Z,6.70
2017-12-04T15:56:31.903Z,6.80
2017-12-04T15:58:57.872Z,6.80
2017-12-04T16:01:24.604Z,6.80
2017-12-04T16:03:51.345Z,6.80
2017-12-04T16:06:18.054Z,6.80
2017-12-04T16:08:44.036Z,6.70
2017-12-04T16:11:10.033Z,6.70
2017-12-04T16:13:36.725Z,6.70
2017-12-04T16:16:02.689Z,6.70
2017-12-04T16:18:28.743Z,7.00
2017-12-04T16:20:54.712Z,7.10
2017-12-04T16:23:20.684Z,7.00
2017-12-04T16:25:46.876Z,6.90
2017-12-04T16:28:13.595Z,6.90
2017-12-04T16:30:39.605Z,6.80
2017-12-04T16:33:05.689Z,6.80
2017-12-04T16:35:31.677Z,6.70
2017-12-04T16:37:58.428Z,6.80
2017-12-04T16:40:25.290Z,6.80
2017-12-04T16:42:51.282Z,6.80
2017-12-04T16:45:18.026Z,6.80
2017-12-04T16:47:44.801Z,6.80
2017-12-04T16:50:10.797Z,6.80
2017-12-04T16:52:36.845Z,6.90
2017-12-04T16:55:02.854Z,6.90
2017-12-04T16:57:28.827Z,6.80
2017-12-04T16:59:54.804Z,6.80
2017-12-04T17:02:20.806Z,6.70
2017-12-04T17:04:47.545Z,6.80
2017-12-04T17:07:14.283Z,6.70
2017-12-04T17:09:41.034Z,6.80
2017-12-04T17:12:07.032Z,6.80
2017-12-04T17:14:34.096Z,6.70
2017-12-04T17:17:00.099Z,6.70
2017-12-04T17:19:26.869Z,6.60
2017-12-04T17:21:52.898Z,6.60
2017-12-04T17:24:18.876Z,6.60
2017-12-04T17:26:44.863Z,6.70
2017-12-04T17:29:10.882Z,6.70
2017-12-04T17:31:36.846Z,6.80
2017-12-04T17:34:03.579Z,6.70
2017-12-04T17:36:29.612Z,6.70
2017-12-04T17:38:56.364Z,6.80
2017-12-04T17:41:23.370Z,6.80
2017-12-04T17:43:49.370Z,6.80
2017-12-04T17:46:15.344Z,6.80
2017-12-04T17:48:42.119Z,6.80
2017-12-04T17:51:08.151Z,6.70
2017-12-04T17:53:34.131Z,6.70
2017-12-04T17:56:01.079Z,6.80
2017-12-04T17:58:27.818Z,6.70
2017-12-04T18:00:54.542Z,6.70
2017-12-04T18:03:22.412Z,6.70
2017-12-04T18:05:49.163Z,6.80
2017-12-04T18:08:15.885Z,6.80
2017-12-04T18:10:42.620Z,6.90
2017-12-04T18:13:08.593Z,6.80
2017-12-04T18:15:34.582Z,6.80
2017-12-04T18:18:01.293Z,6.80
2017-12-04T18:20:27.264Z,6.80
2017-12-04T18:22:53.261Z,6.80
2017-12-04T18:25:19.987Z,6.70
2017-12-04T18:27:46.719Z,6.70
2017-12-04T18:30:12.742Z,6.70
2017-12-04T18:32:38.980Z,6.70
2017-12-04T18:35:05.708Z,6.60
2017-12-04T18:37:31.694Z,6.60
2017-12-04T18:39:57.653Z,6.50
2017-12-04T18:42:23.602Z,6.50
2017-12-04T18:44:49.617Z,6.50
2017-12-04T18:47:16.319Z,6.60
2017-12-04T18:49:42.272Z,6.60
2017-12-04T18:52:09.313Z,6.70
2017-12-04T18:54:36.016Z,6.70
2017-12-04T18:57:02.027Z,6.70
2017-12-04T18:59:28.392Z,6.70
2017-12-04T19:01:54.370Z,6.70
2017-12-04T19:04:20.360Z,6.70
2017-12-04T19:06:47.060Z,6.60
2017-12-04T19:09:13.066Z,6.60
2017-12-04T19:11:39.063Z,6.60
2017-12-04T19:14:05.074Z,6.70
2017-12-04T19:16:31.063Z,6.60
2017-12-04T19:18:57.043Z,6.60
2017-12-04T19:21:23.426Z,6.60
2017-12-04T19:23:50.177Z,6.70
2017-12-04T19:26:16.903Z,6.70
2017-12-04T19:28:43.674Z,6.60
2017-12-04T19:31:09.648Z,6.60
2017-12-04T19:33:35.617Z,6.60
2017-12-04T19:36:01.627Z,6.60
2017-12-04T19:38:27.608Z,6.70
2017-12-04T19:40:53.574Z,6.50
2017-12-04T19:43:19.598Z,6.50
2017-12-04T19:45:45.606Z,6.50
2017-12-04T19:48:12.335Z,6.50
2017-12-04T19:50:39.377Z,6.50
2017-12-04T19:53:05.373Z,6.50
2017-12-04T19:55:31.365Z,6.50
2017-12-04T19:57:57.626Z,6.50
2017-12-04T20:00:23.597Z,6.50
2017-12-04T20:02:49.589Z,6.50
2017-12-04T20:05:16.757Z,6.40
2017-12-04T20:07:43.504Z,6.30
2017-12-04T20:10:09.502Z,6.30
2017-12-04T20:12:36.253Z,6.40
2017-12-04T20:15:02.984Z,6.50
2017-12-04T20:17:29.787Z,6.50
2017-12-04T20:19:56.153Z,6.50
2017-12-04T20:22:22.882Z,6.40
2017-12-04T20:24:48.939Z,6.40
2017-12-04T20:27:14.970Z,6.40
2017-12-04T20:29:40.966Z,6.40
2017-12-04T20:32:07.677Z,6.30
2017-12-04T20:34:33.745Z,6.30
2017-12-04T20:36:59.753Z,6.40
2017-12-04T20:39:26.488Z,6.50
2017-12-04T20:41:53.499Z,6.50
2017-12-04T20:44:19.515Z,6.50
2017-12-04T20:46:45.528Z,6.50
2017-12-04T20:49:12.237Z,6.60
2017-12-04T20:51:38.221Z,6.60
2017-12-04T20:54:04.221Z,6.60
2017-12-04T20:56:30.496Z,6.60
2017-12-04T20:58:57.224Z,6.70
2017-12-04T21:01:23.963Z,6.70
2017-12-04T21:03:50.727Z,6.60
2017-12-04T21:06:16.724Z,6.60
2017-12-04T21:08:56.160Z,6.60
2017-12-04T21:11:35.469Z,6.50
2017-12-04T21:14:14.120Z,6.50
2017-12-04T21:16:53.334Z,6.60
2017-12-04T21:19:19.351Z,6.60
2017-12-04T21:21:45.337Z,6.60
2017-12-04T21:24:11.329Z,6.60
2017-12-04T21:26:37.596Z,6.70
2017-12-04T21:29:03.601Z,6.60
2017-12-04T21:31:29.578Z,6.60
2017-12-04T21:33:55.677Z,6.70
2017-12-04T21:36:21.801Z,6.60
2017-12-04T21:38:47.783Z,6.70
2017-12-04T21:41:13.805Z,6.70
2017-12-04T21:43:39.811Z,6.80
2017-12-04T21:46:05.862Z,6.90
2017-12-04T21:48:31.871Z,6.90
2017-12-04T21:50:57.869Z,6.90
2017-12-04T21:53:24.629Z,6.80
2017-12-04T21:55:50.655Z,6.80
2017-12-04T21:58:16.629Z,6.80
2017-12-04T22:00:42.633Z,6.80
2017-12-04T22:03:08.653Z,6.80
2017-12-04T22:05:34.629Z,6.80
2017-12-04T22:08:01.354Z,6.70
2017-12-04T22:10:28.205Z,6.70
2017-12-04T22:12:54.941Z,6.70
2017-12-04T22:15:20.905Z,6.70
2017-12-04T22:17:46.941Z,6.70
2017-12-04T22:20:12.947Z,6.70
2017-12-04T22:22:46.282Z,6.70
2017-12-04T22:25:12.299Z,6.70
2017-12-04T22:27:38.312Z,6.70
2017-12-04T22:30:04.325Z,6.70
2017-12-04T22:32:30.716Z,6.70
2017-12-04T22:34:56.714Z,6.70
2017-12-04T22:37:23.429Z,6.70
2017-12-04T22:39:49.873Z,6.70
2017-12-04T22:42:15.869Z,6.70
2017-12-04T22:44:41.843Z,6.70
2017-12-04T22:47:08.617Z,6.70
2017-12-04T22:49:34.609Z,6.70
2017-12-04T22:52:00.589Z,6.70
2017-12-04T22:54:26.589Z,6.80
2017-12-04T22:56:52.641Z,6.80
2017-12-04T22:59:18.622Z,6.80
2017-12-04T23:01:44.657Z,6.80
2017-12-04T23:04:10.656Z,6.90
2017-12-04T23:06:36.666Z,6.80
2017-12-04T23:09:02.769Z,6.80
2017-12-04T23:11:29.505Z,6.90
2017-12-04T23:13:55.513Z,6.90
2017-12-04T23:16:21.540Z,6.90
2017-12-04T23:18:47.541Z,7.00
2017-12-04T23:21:13.525Z,7.00
2017-12-04T23:23:39.526Z,7.00
2017-12-04T23:26:06.251Z,7.10
2017-12-04T23:28:32.353Z,7.10
2017-12-04T23:30:58.357Z,7.20
2017-12-04T23:33:24.350Z,7.20
2017-12-04T23:35:50.328Z,7.20
2017-12-04T23:38:16.305Z,7.20
2017-12-04T23:40:42.288Z,7.20
2017-12-04T23:43:09.057Z,7.30
2017-12-04T23:45:35.052Z,7.30
2017-12-04T23:48:01.816Z,7.30
2017-12-04T23:50:28.118Z,7.30
2017-12-04T23:52:54.868Z,7.40
2017-12-04T23:55:21.608Z,7.40
2017-12-04T23:57:48.368Z,7.40
